createdAt,value
2018-11-25T00:01:46.263Z,26.75
2018-11-25T00:04:14.752Z,28.38
2018-11-25T00:06:43.285Z,29.63
2018-11-25T00:09:12.103Z,26.73
2018-11-25T00:11:40.934Z,27.20
2018-11-25T00:14:09.498Z,28.80
2018-11-25T00:16:37.685Z,30.10
2018-11-25T00:19:06.184Z,29.63
2018-11-25T00:21:34.923Z,27.80
2018-11-25T00:24:03.877Z,29.30
2018-11-25T00:26:32.349Z,28.75
2018-11-25T00:29:00.815Z,28.17
2018-11-25T00:31:29.641Z,31.02
2018-11-25T00:33:57.842Z,29.60
2018-11-25T00:36:26.372Z,29.83
2018-11-25T00:38:54.939Z,30.52
2018-11-25T00:41:23.838Z,30.15
2018-11-25T00:43:52.432Z,30.23
2018-11-25T00:46:21.406Z,30.88
2018-11-25T00:48:50.742Z,30.90
2018-11-25T00:51:19.023Z,30.55
2018-11-25T00:53:47.657Z,30.77
2018-11-25T00:56:15.849Z,32.88
2018-11-25T00:58:44.056Z,29.60
2018-11-25T01:01:12.350Z,32.03
2018-11-25T01:03:41.287Z,31.52
2018-11-25T01:06:10.161Z,32.50
2018-11-25T01:08:38.401Z,32.38
2018-11-25T01:11:06.901Z,32.00
2018-11-25T01:13:35.506Z,32.53
2018-11-25T01:16:03.973Z,30.68
2018-11-25T01:18:32.228Z,31.07
2018-11-25T01:21:01.060Z,29.85
2018-11-25T01:23:29.339Z,30.27
2018-11-25T01:25:57.572Z,29.75
2018-11-25T01:28:25.832Z,30.55
2018-11-25T01:30:54.058Z,30.05
2018-11-25T01:33:22.357Z,31.55
2018-11-25T01:35:51.222Z,30.08
2018-11-25T01:38:19.841Z,29.63
2018-11-25T01:40:48.403Z,30.48
2018-11-25T01:43:16.880Z,29.32
2018-11-25T01:45:45.113Z,30.95
2018-11-25T01:48:13.712Z,31.75
2018-11-25T01:50:42.912Z,31.97
2018-11-25T01:53:11.113Z,29.18
2018-11-25T01:55:40.126Z,31.00
2018-11-25T01:58:08.997Z,31.62
2018-11-25T02:00:37.572Z,30.60
2018-11-25T02:03:06.475Z,32.03
2018-11-25T02:05:34.727Z,33.33
2018-11-25T02:08:02.926Z,34.33
2018-11-25T02:10:31.175Z,30.37
2018-11-25T02:12:59.694Z,31.62
2018-11-25T02:15:27.893Z,31.12
2018-11-25T02:17:56.594Z,33.28
2018-11-25T02:20:25.051Z,31.70
2018-11-25T02:23:13.233Z,34.98
2018-11-25T02:25:41.838Z,34.73
2018-11-25T02:28:10.359Z,34.65
2018-11-25T02:30:38.992Z,33.15
2018-11-25T02:33:07.603Z,33.45
2018-11-25T02:35:36.104Z,36.15
2018-11-25T02:38:04.767Z,35.08
2018-11-25T02:40:33.265Z,35.15
2018-11-25T02:43:01.792Z,35.30
2018-11-25T02:45:30.325Z,33.83
2018-11-25T02:47:59.345Z,34.43
2018-11-25T02:50:28.484Z,36.17
2018-11-25T02:53:16.349Z,34.83
2018-11-25T02:55:45.037Z,34.80
2018-11-25T02:58:13.268Z,34.80
2018-11-25T03:00:41.478Z,33.18
2018-11-25T03:03:09.679Z,34.75
2018-11-25T03:05:37.877Z,33.20
2018-11-25T03:08:06.151Z,32.85
2018-11-25T03:10:34.352Z,34.75
2018-11-25T03:13:02.925Z,34.00
2018-11-25T03:15:32.189Z,34.95
2018-11-25T03:18:01.203Z,34.60
2018-11-25T03:20:30.639Z,33.58
2018-11-25T03:22:59.520Z,35.20
2018-11-25T03:25:28.032Z,34.55
2018-11-25T03:27:56.522Z,37.30
2018-11-25T03:30:24.750Z,36.45
2018-11-25T03:32:53.896Z,35.80
2018-11-25T03:35:22.459Z,36.77
2018-11-25T03:37:50.711Z,36.03
2018-11-25T03:40:19.434Z,35.15
2018-11-25T03:42:48.285Z,37.50
2018-11-25T03:45:35.901Z,35.28
2018-11-25T03:48:05.157Z,36.60
2018-11-25T03:50:52.815Z,34.73
2018-11-25T03:53:21.022Z,34.67
2018-11-25T03:55:49.972Z,36.42
2018-11-25T03:58:18.223Z,36.55
2018-11-25T04:00:46.438Z,36.98
2018-11-25T04:03:15.657Z,34.55
2018-11-25T04:05:43.936Z,33.40
2018-11-25T04:08:12.475Z,35.33
2018-11-25T04:10:41.036Z,34.60
2018-11-25T04:13:09.692Z,36.38
2018-11-25T04:15:37.940Z,34.75
2018-11-25T04:18:06.136Z,33.40
2018-11-25T04:20:34.827Z,34.70
2018-11-25T04:23:04.023Z,33.63
2018-11-25T04:25:32.221Z,34.80
2018-11-25T04:28:01.310Z,35.88
2018-11-25T04:30:29.949Z,34.53
2018-11-25T04:32:58.202Z,35.10
2018-11-25T04:35:26.746Z,36.42
2018-11-25T04:37:55.260Z,35.85
2018-11-25T04:40:23.501Z,34.98
2018-11-25T04:42:52.393Z,37.53
2018-11-25T04:45:20.906Z,36.83
2018-11-25T04:47:50.137Z,35.05
2018-11-25T04:50:22.153Z,35.33
2018-11-25T04:52:51.423Z,34.80
2018-11-25T04:55:20.668Z,35.33
2018-11-25T04:58:08.002Z,34.67
2018-11-25T05:00:36.193Z,35.40
2018-11-25T05:03:04.409Z,34.30
2018-11-25T05:05:32.627Z,36.13
2018-11-25T05:08:01.152Z,33.98
2018-11-25T05:10:29.732Z,35.75
2018-11-25T05:12:57.965Z,35.05
2018-11-25T05:15:26.180Z,37.30
2018-11-25T05:17:54.667Z,36.15
2018-11-25T05:20:23.170Z,38.10
2018-11-25T05:22:51.880Z,34.95
2018-11-25T05:25:20.367Z,36.15
2018-11-25T05:27:48.580Z,34.05
2018-11-25T05:30:36.464Z,34.75
2018-11-25T05:33:05.332Z,35.85
2018-11-25T05:35:33.621Z,36.17
2018-11-25T05:38:02.284Z,35.80
2018-11-25T05:40:31.163Z,34.48
2018-11-25T05:42:59.795Z,37.10
2018-11-25T05:45:28.968Z,36.30
2018-11-25T05:47:57.475Z,35.20
2018-11-25T05:50:25.710Z,36.60
2018-11-25T05:52:54.246Z,36.77
2018-11-25T05:55:22.470Z,36.35
2018-11-25T05:57:50.703Z,34.58
2018-11-25T06:00:39.101Z,36.40
2018-11-25T06:03:26.697Z,37.40
2018-11-25T06:05:55.525Z,38.38
2018-11-25T06:08:23.729Z,35.78
2018-11-25T06:10:52.539Z,34.75
2018-11-25T06:13:21.153Z,35.63
2018-11-25T06:15:49.878Z,36.23
2018-11-25T06:18:18.743Z,38.35
2018-11-25T06:20:47.856Z,38.02
2018-11-25T06:23:16.694Z,35.05
2018-11-25T06:25:45.630Z,36.30
2018-11-25T06:28:14.207Z,35.88
2018-11-25T06:30:43.080Z,35.25
2018-11-25T06:33:11.561Z,35.40
2018-11-25T06:35:40.097Z,37.67
2018-11-25T06:38:08.355Z,37.17
2018-11-25T06:40:36.831Z,34.73
2018-11-25T06:43:05.618Z,38.35
2018-11-25T06:45:34.535Z,37.42
2018-11-25T06:48:22.455Z,36.65
2018-11-25T06:50:50.696Z,38.33
2018-11-25T06:53:19.250Z,39.20
2018-11-25T06:55:47.782Z,38.13
2018-11-25T06:58:16.390Z,38.75
2018-11-25T07:00:44.905Z,37.03
2018-11-25T07:03:13.428Z,38.73
2018-11-25T07:05:41.686Z,38.60
2018-11-25T07:08:10.161Z,37.05
2018-11-25T07:10:38.411Z,37.40
2018-11-25T07:13:07.351Z,38.60
2018-11-25T07:15:35.575Z,36.80
2018-11-25T07:18:03.923Z,37.15
2018-11-25T07:20:32.474Z,37.42
2018-11-25T07:23:00.709Z,38.35
2018-11-25T07:25:28.910Z,38.15
2018-11-25T07:27:57.397Z,38.95
2018-11-25T07:30:29.018Z,40.60
2018-11-25T07:32:57.675Z,37.25
2018-11-25T07:35:45.828Z,38.63
2018-11-25T07:38:33.435Z,39.67
2018-11-25T07:41:01.655Z,40.70
2018-11-25T07:43:30.113Z,37.98
2018-11-25T07:45:58.337Z,37.50
2018-11-25T07:48:26.573Z,38.50
2018-11-25T07:50:55.096Z,38.30
2018-11-25T07:53:24.224Z,37.05
2018-11-25T07:55:53.021Z,38.23
2018-11-25T07:58:21.541Z,37.85
2018-11-25T08:00:50.099Z,38.55
2018-11-25T08:03:18.299Z,38.15
2018-11-25T08:05:46.515Z,37.30
2018-11-25T08:08:14.762Z,38.13
2018-11-25T08:10:43.297Z,39.15
2018-11-25T08:13:11.852Z,39.67
2018-11-25T08:15:40.363Z,40.48
2018-11-25T08:18:08.852Z,38.13
2018-11-25T08:20:37.444Z,39.33
2018-11-25T08:23:05.737Z,39.90
2018-11-25T08:25:34.648Z,38.88
2018-11-25T08:28:03.162Z,37.58
2018-11-25T08:30:31.362Z,38.70
2018-11-25T08:33:00.232Z,38.78
2018-11-25T08:35:28.696Z,39.45
2018-11-25T08:37:56.900Z,39.23
2018-11-25T08:40:25.499Z,39.18
2018-11-25T08:42:53.912Z,39.08
2018-11-25T08:45:22.062Z,40.92
2018-11-25T08:47:50.642Z,39.40
2018-11-25T08:50:19.601Z,37.28
2018-11-25T08:52:51.890Z,39.18
2018-11-25T08:55:24.150Z,38.02
2018-11-25T08:57:52.961Z,40.12
2018-11-25T09:00:41.169Z,38.02
2018-11-25T09:03:09.412Z,38.63
2018-11-25T09:05:37.614Z,37.35
2018-11-25T09:08:05.813Z,38.55
2018-11-25T09:10:34.830Z,38.50
2018-11-25T09:13:03.032Z,36.25
2018-11-25T09:15:31.552Z,34.27
2018-11-25T09:18:00.030Z,38.78
2018-11-25T09:20:28.614Z,36.33
2018-11-25T09:22:57.101Z,37.53
2018-11-25T09:25:45.003Z,35.63
2018-11-25T09:28:13.825Z,36.30
2018-11-25T09:30:42.365Z,36.68
2018-11-25T09:33:10.916Z,35.50
2018-11-25T09:35:39.116Z,34.08
2018-11-25T09:38:07.344Z,33.80
2018-11-25T09:40:36.144Z,34.35
2018-11-25T09:43:04.502Z,33.50
2018-11-25T09:45:33.731Z,36.05
2018-11-25T09:48:01.997Z,34.20
2018-11-25T09:50:31.099Z,34.70
2018-11-25T09:53:00.600Z,35.63
2018-11-25T09:55:29.203Z,36.30
2018-11-25T09:58:00.956Z,33.25
2018-11-25T10:00:33.009Z,34.70
2018-11-25T10:03:01.445Z,36.25
2018-11-25T10:05:29.643Z,33.33
2018-11-25T10:07:58.160Z,32.80
2018-11-25T10:10:26.763Z,34.48
2018-11-25T10:12:54.966Z,34.50
2018-11-25T10:15:43.090Z,33.48
2018-11-25T10:18:12.005Z,32.80
2018-11-25T10:20:41.164Z,31.27
2018-11-25T10:23:09.406Z,32.63
2018-11-25T10:25:38.643Z,33.70
2018-11-25T10:28:06.891Z,31.60
2018-11-25T10:30:35.520Z,31.97
2018-11-25T10:33:06.346Z,30.40
2018-11-25T10:35:34.538Z,27.13
2018-11-25T10:38:02.784Z,27.27
2018-11-25T10:40:31.293Z,27.03
2018-11-25T10:42:59.478Z,28.83
2018-11-25T10:45:28.426Z,26.47
2018-11-25T10:47:57.382Z,28.40
2018-11-25T10:50:26.235Z,29.53
2018-11-25T10:52:54.435Z,28.13
2018-11-25T10:55:23.231Z,27.67
2018-11-25T10:57:52.691Z,28.70
2018-11-25T11:00:59.639Z,26.93
2018-11-25T11:03:46.949Z,25.90
2018-11-25T11:06:34.231Z,24.40
2018-11-25T11:09:03.041Z,25.50
2018-11-25T11:11:31.564Z,26.50
2018-11-25T11:14:00.508Z,26.17
2018-11-25T11:16:28.692Z,26.93
2018-11-25T11:18:57.479Z,28.70
2018-11-25T11:21:26.595Z,27.80
2018-11-25T11:23:54.310Z,27.90
2018-11-25T11:26:42.767Z,25.70
2018-11-25T11:29:11.296Z,26.83
2018-11-25T11:31:40.227Z,27.63
2018-11-25T11:34:08.430Z,26.80
2018-11-25T11:36:36.664Z,28.23
2018-11-25T11:39:07.341Z,27.50
2018-11-25T11:41:36.245Z,26.97
2018-11-25T11:44:05.302Z,25.80
2018-11-25T11:46:34.222Z,25.87
2018-11-25T11:49:02.739Z,25.80
2018-11-25T11:51:31.324Z,23.43
2018-11-25T11:53:59.509Z,25.00
2018-11-25T11:56:28.094Z,24.77
2018-11-25T11:58:56.284Z,27.00
2018-11-25T12:01:24.528Z,26.00
2018-11-25T12:03:53.425Z,25.10
2018-11-25T12:06:22.479Z,24.20
2018-11-25T12:08:50.961Z,25.10
2018-11-25T12:11:39.092Z,24.80
2018-11-25T12:14:08.291Z,26.17
2018-11-25T12:16:36.474Z,23.10
2018-11-25T12:19:24.379Z,24.27
2018-11-25T12:21:58.066Z,24.63
2018-11-25T12:24:21.743Z,24.67
2018-11-25T12:26:49.958Z,21.77
2018-11-25T12:29:18.197Z,23.50
2018-11-25T12:31:46.775Z,25.00
2018-11-25T12:34:15.417Z,23.73
2018-11-25T12:36:43.918Z,24.90
2018-11-25T12:39:12.857Z,34.10
2018-11-25T12:41:41.437Z,25.33
2018-11-25T12:44:09.659Z,24.40
2018-11-25T12:46:38.792Z,24.50
2018-11-25T12:49:07.340Z,23.60
2018-11-25T12:51:36.572Z,22.80
2018-11-25T12:54:05.578Z,22.40
2018-11-25T12:56:33.841Z,23.83
2018-11-25T12:59:03.039Z,21.90
2018-11-25T13:01:31.844Z,23.07
2018-11-25T13:04:00.775Z,22.63
2018-11-25T13:06:48.891Z,20.63
2018-11-25T13:09:17.436Z,22.13
2018-11-25T13:12:05.163Z,19.90
2018-11-25T13:14:34.326Z,19.53
2018-11-25T13:17:02.518Z,20.40
2018-11-25T13:19:31.420Z,19.50
2018-11-25T13:22:00.287Z,18.73
2018-11-25T13:24:29.218Z,19.57
2018-11-25T13:26:58.651Z,20.93
2018-11-25T13:29:27.206Z,20.53
2018-11-25T13:31:55.690Z,19.57
2018-11-25T13:34:24.208Z,19.30
2018-11-25T13:36:53.061Z,19.27
2018-11-25T13:39:21.533Z,19.80
2018-11-25T13:41:50.367Z,20.00
2018-11-25T13:44:18.612Z,18.37
2018-11-25T13:46:47.122Z,17.77
2018-11-25T13:49:15.951Z,19.13
2018-11-25T13:51:44.183Z,18.30
2018-11-25T13:54:12.370Z,16.27
2018-11-25T13:56:40.589Z,16.63
2018-11-25T13:59:09.099Z,14.27
2018-11-25T14:01:37.603Z,14.97
2018-11-25T14:04:06.338Z,15.77
2018-11-25T14:06:35.027Z,15.20
2018-11-25T14:09:03.691Z,14.27
2018-11-25T14:11:32.955Z,15.90
2018-11-25T14:14:00.398Z,13.37
2018-11-25T14:16:28.614Z,12.23
2018-11-25T14:18:56.795Z,12.77
2018-11-25T14:21:25.401Z,11.90
2018-11-25T14:23:53.978Z,11.30
2018-11-25T14:26:24.658Z,11.93
2018-11-25T14:28:53.289Z,13.07
2018-11-25T14:31:21.480Z,12.63
2018-11-25T14:33:50.462Z,14.13
2018-11-25T14:36:18.681Z,14.13
2018-11-25T14:38:46.905Z,17.03
2018-11-25T14:41:15.487Z,18.60
2018-11-25T14:43:44.053Z,19.00
2018-11-25T14:46:12.610Z,19.60
2018-11-25T14:48:41.133Z,18.70
2018-11-25T14:51:29.038Z,17.63
2018-11-25T14:53:58.118Z,19.30
2018-11-25T14:56:26.611Z,18.03
2018-11-25T14:58:55.836Z,19.70
2018-11-25T15:01:44.958Z,18.37
2018-11-25T15:04:36.307Z,19.33
2018-11-25T15:07:01.049Z,18.00
2018-11-25T15:09:29.229Z,18.13
2018-11-25T15:11:57.804Z,17.23
2018-11-25T15:14:26.336Z,16.87
2018-11-25T15:16:55.620Z,16.60
2018-11-25T15:19:43.227Z,18.33
2018-11-25T15:22:11.733Z,17.97
2018-11-25T15:24:40.725Z,19.80
2018-11-25T15:27:08.972Z,19.80
2018-11-25T15:29:37.859Z,20.57
2018-11-25T15:32:06.369Z,20.83
2018-11-25T15:34:35.259Z,20.27
2018-11-25T15:37:03.695Z,21.87
2018-11-25T15:39:32.232Z,21.27
2018-11-25T15:42:01.010Z,21.97
2018-11-25T15:44:29.208Z,21.50
2018-11-25T15:46:58.761Z,22.62
2018-11-25T15:49:27.004Z,23.25
2018-11-25T15:51:55.526Z,21.68
2018-11-25T15:54:24.100Z,22.37
2018-11-25T15:56:52.320Z,21.62
2018-11-25T15:59:21.147Z,21.70
2018-11-25T16:01:49.749Z,23.70
2018-11-25T16:04:17.945Z,22.65
2018-11-25T16:06:46.547Z,24.27
2018-11-25T16:09:15.398Z,23.85
2018-11-25T16:11:43.898Z,24.72
2018-11-25T16:14:12.104Z,24.55
2018-11-25T16:16:40.326Z,23.27
2018-11-25T16:19:08.854Z,25.08
2018-11-25T16:21:37.067Z,24.10
2018-11-25T16:24:05.772Z,23.85
2018-11-25T16:26:35.627Z,24.35
2018-11-25T16:29:08.181Z,25.97
2018-11-25T16:31:36.411Z,23.90
2018-11-25T16:34:04.642Z,25.88
2018-11-25T16:36:32.840Z,26.23
2018-11-25T16:39:01.987Z,25.57
2018-11-25T16:41:30.180Z,24.30
2018-11-25T16:43:58.435Z,27.55
2018-11-25T16:46:46.317Z,23.67
2018-11-25T16:49:15.624Z,24.27
2018-11-25T16:51:43.844Z,23.83
2018-11-25T16:54:12.077Z,26.20
2018-11-25T16:56:40.797Z,24.57
2018-11-25T16:59:09.714Z,24.87
2018-11-25T17:01:38.183Z,26.68
2018-11-25T17:04:06.416Z,25.68
2018-11-25T17:06:35.544Z,26.52
2018-11-25T17:09:04.101Z,24.30
2018-11-25T17:11:32.801Z,25.92
2018-11-25T17:14:01.758Z,26.07
2018-11-25T17:16:30.395Z,24.52
2018-11-25T17:18:58.996Z,26.75
2018-11-25T17:21:27.622Z,26.60
2018-11-25T17:23:56.301Z,26.50
2018-11-25T17:26:24.569Z,28.75
2018-11-25T17:29:12.785Z,27.98
2018-11-25T17:31:40.992Z,27.22
2018-11-25T17:34:09.611Z,28.52
2018-11-25T17:36:38.927Z,27.50
2018-11-25T17:41:36.345Z,27.37
2018-11-25T17:44:04.572Z,27.22
2018-11-25T17:46:33.144Z,26.15
2018-11-25T17:49:02.086Z,27.73
2018-11-25T17:51:30.320Z,27.05
2018-11-25T17:54:18.734Z,25.55
2018-11-25T17:56:47.608Z,29.65
2018-11-25T17:59:16.560Z,26.95
2018-11-25T18:01:45.483Z,28.60
2018-11-25T18:04:13.722Z,26.62
2018-11-25T18:06:42.432Z,25.97
2018-11-25T18:09:11.339Z,26.12
2018-11-25T18:11:39.564Z,26.12
2018-11-25T18:14:08.685Z,26.15
2018-11-25T18:16:37.011Z,25.95
2018-11-25T18:19:35.343Z,26.75
2018-11-25T18:22:13.135Z,25.90
2018-11-25T18:24:42.044Z,26.37
2018-11-25T18:27:10.277Z,26.52
2018-11-25T18:29:39.222Z,27.20
2018-11-25T18:32:07.452Z,27.07
2018-11-25T18:34:36.023Z,27.22
2018-11-25T18:37:04.271Z,29.60
2018-11-25T18:39:32.838Z,28.90
2018-11-25T18:42:01.423Z,27.70
2018-11-25T18:44:30.088Z,27.35
2018-11-25T18:46:58.640Z,30.02
2018-11-25T18:49:26.837Z,27.82
2018-11-25T18:51:55.372Z,25.35
2018-11-25T18:54:23.948Z,26.82
2018-11-25T18:56:52.791Z,28.45
2018-11-25T18:59:21.681Z,28.02
2018-11-25T19:02:12.005Z,26.90
2018-11-25T19:04:40.282Z,26.05
2018-11-25T19:07:09.168Z,29.15
2018-11-25T19:09:37.406Z,28.20
2018-11-25T19:12:05.723Z,26.85
2018-11-25T19:14:35.063Z,27.62
2018-11-25T19:17:22.992Z,27.73
2018-11-25T19:19:51.576Z,28.35
2018-11-25T19:22:19.793Z,28.50
2018-11-25T19:24:48.406Z,28.35
2018-11-25T19:27:17.394Z,27.82
2018-11-25T19:29:46.295Z,29.27
2018-11-25T19:32:15.144Z,27.70
2018-11-25T19:34:44.092Z,29.00
2018-11-25T19:37:12.324Z,30.00
2018-11-25T19:39:40.610Z,28.40
2018-11-25T19:42:09.518Z,27.48
2018-11-25T19:44:37.762Z,26.10
2018-11-25T19:47:06.842Z,27.98
2018-11-25T19:49:35.671Z,25.97
2018-11-25T19:52:04.227Z,29.07
2018-11-25T19:54:33.310Z,28.07
2018-11-25T19:57:02.384Z,26.85
2018-11-25T19:59:30.700Z,26.00
2018-11-25T20:02:18.351Z,25.30
2018-11-25T20:04:47.095Z,24.45
2018-11-25T20:07:15.478Z,25.90
2018-11-25T20:09:43.799Z,24.52
2018-11-25T20:12:12.844Z,24.10
2018-11-25T20:14:42.175Z,24.77
2018-11-25T20:17:29.798Z,25.43
2018-11-25T20:19:58.253Z,23.80
2018-11-25T20:22:27.173Z,25.32
2018-11-25T20:24:56.136Z,25.92
2018-11-25T20:27:43.806Z,24.95
2018-11-25T20:30:16.363Z,24.65
2018-11-25T20:33:03.863Z,26.10
2018-11-25T20:35:32.575Z,26.25
2018-11-25T20:38:19.877Z,25.82
2018-11-25T20:40:48.490Z,24.75
2018-11-25T20:43:16.782Z,27.42
2018-11-25T20:46:04.113Z,26.30
2018-11-25T20:48:32.766Z,28.50
2018-11-25T20:51:01.517Z,28.40
2018-11-25T20:53:48.865Z,25.40
2018-11-25T20:56:17.472Z,24.55
2018-11-25T20:58:45.688Z,25.65
2018-11-25T21:01:14.441Z,26.90
2018-11-25T21:03:42.653Z,26.07
2018-11-25T21:06:10.865Z,28.20
2018-11-25T21:08:39.139Z,26.95
2018-11-25T21:11:07.377Z,25.85
2018-11-25T21:13:36.185Z,27.48
2018-11-25T21:16:04.389Z,26.57
2018-11-25T21:18:32.629Z,25.15
2018-11-25T21:21:01.180Z,25.00
2018-11-25T21:23:30.123Z,24.37
2018-11-25T21:25:59.061Z,23.25
2018-11-25T21:28:47.439Z,23.95
2018-11-25T21:31:16.710Z,27.93
2018-11-25T21:33:45.399Z,29.25
2018-11-25T21:36:13.639Z,29.25
2018-11-25T21:38:42.510Z,29.40
2018-11-25T21:41:11.080Z,29.65
2018-11-25T21:43:39.599Z,27.67
2018-11-25T21:46:07.845Z,29.65
2018-11-25T21:48:36.444Z,27.45
2018-11-25T21:51:04.722Z,26.85
2018-11-25T21:53:33.418Z,27.85
2018-11-25T21:56:02.361Z,29.77
2018-11-25T21:58:30.637Z,27.20
2018-11-25T22:00:59.431Z,26.33
2018-11-25T22:03:27.935Z,27.45
2018-11-25T22:05:56.597Z,30.70
2018-11-25T22:08:25.115Z,28.17
2018-11-25T22:10:53.697Z,29.23
2018-11-25T22:13:22.289Z,30.20
2018-11-25T22:15:50.822Z,31.15
2018-11-25T22:18:20.042Z,28.27
2018-11-25T22:20:48.709Z,27.00
2018-11-25T22:23:17.542Z,30.85
2018-11-25T22:25:46.531Z,30.20
2018-11-25T22:28:15.851Z,28.38
2018-11-25T22:30:44.559Z,26.55
2018-11-25T22:33:13.404Z,29.75
2018-11-25T22:35:41.965Z,28.07
2018-11-25T22:38:10.484Z,26.30
2018-11-25T22:40:39.056Z,26.55
2018-11-25T22:43:07.663Z,27.22
2018-11-25T22:45:36.229Z,26.23
2018-11-25T22:48:04.446Z,29.00
2018-11-25T22:50:33.545Z,27.37
2018-11-25T22:53:02.397Z,26.12
2018-11-25T22:55:30.939Z,27.67
2018-11-25T22:57:59.948Z,27.90
2018-11-25T23:00:32.750Z,26.50
2018-11-25T23:03:01.009Z,28.17
2018-11-25T23:06:08.040Z,29.10
2018-11-25T23:08:36.626Z,28.00
2018-11-25T23:11:05.367Z,28.92
2018-11-25T23:13:34.801Z,28.15
2018-11-25T23:16:04.605Z,29.00
2018-11-25T23:18:32.824Z,29.30
2018-11-25T23:21:02.355Z,29.45
2018-11-25T23:23:30.628Z,31.10
2018-11-25T23:25:59.641Z,29.55
2018-11-25T23:28:28.545Z,29.67
2018-11-25T23:30:57.103Z,31.73
2018-11-25T23:33:25.614Z,28.55
2018-11-25T23:35:54.323Z,28.52
2018-11-25T23:38:23.152Z,29.48
2018-11-25T23:40:51.741Z,29.32
2018-11-25T23:43:20.352Z,31.25
2018-11-25T23:45:49.113Z,28.52
2018-11-25T23:48:17.992Z,30.60
2018-11-25T23:50:46.543Z,32.85
2018-11-25T23:53:15.450Z,32.95
2018-11-25T23:55:44.259Z,30.62
2018-11-25T23:58:19.880Z,29.95
